Weather at Israeli Center for Sport Aviation

Public forecast

Using degrees Celsius for public forecast. Weather courtesy of forecast.io.

Closest aviation weather report (METAR) to Israeli Center for Sport Aviation

Closest report is Ben Gurion International Airport, 7.3 nm (13.5 km) ENE.

2023/02/05 04:50 (retrieved 21 minutes ago)

LLBG 050450Z 18010KT 9999 FEW050 11/08 Q1013 NOSIG

Closest aviation forecast (TAF) to Israeli Center for Sport Aviation

Forecast is more than 6 hours old.

Closest forecast is Damascus International Airport, 124.3 nm (230.2 km) NE.

2023/02/04 18:09 (retrieved 11 hours ago)

TAF OSDI 041700Z 0418/0524 25015KT 9999 FEW030 PROB30 TEMPO 0503/0506 22005KT 3000 BR BECMG 0508/0510 23015G25KT 5000 SHRA FEW025CB SCT030 OVC090